sensor_id;sensor_type;location;lat;lon;timestamp;temperature;humidity
44705;DHT22;30431;48.520;9.046;2024-02-21T00:01:43;4.80;99.90
44705;DHT22;30431;48.520;9.046;2024-02-21T00:04:10;4.80;99.90
44705;DHT22;30431;48.520;9.046;2024-02-21T00:06:37;4.70;99.90
44705;DHT22;30431;48.520;9.046;2024-02-21T00:09:04;4.60;99.90
44705;DHT22;30431;48.520;9.046;2024-02-21T00:11:30;4.60;99.90
44705;DHT22;30431;48.520;9.046;2024-02-21T00:13:57;4.60;99.90
44705;DHT22;30431;48.520;9.046;2024-02-21T00:16:24;4.70;99.90
44705;DHT22;30431;48.520;9.046;2024-02-21T00:18:53;4.80;99.90
44705;DHT22;30431;48.520;9.046;2024-02-21T00:21:20;4.80;99.90
44705;DHT22;30431;48.520;9.046;2024-02-21T00:23:49;4.80;99.90
44705;DHT22;30431;48.520;9.046;2024-02-21T00:26:17;4.80;99.90
44705;DHT22;30431;48.520;9.046;2024-02-21T00:28:44;4.80;99.90
44705;DHT22;30431;48.520;9.046;2024-02-21T00:31:13;4.70;99.90
44705;DHT22;30431;48.520;9.046;2024-02-21T00:33:40;4.70;99.90
44705;DHT22;30431;48.520;9.046;2024-02-21T00:36:10;4.80;99.90
44705;DHT22;30431;48.520;9.046;2024-02-21T00:38:41;4.90;99.90
44705;DHT22;30431;48.520;9.046;2024-02-21T00:41:08;4.90;99.90
44705;DHT22;30431;48.520;9.046;2024-02-21T00:43:35;4.80;99.90
44705;DHT22;30431;48.520;9.046;2024-02-21T00:46:02;4.80;99.90
44705;DHT22;30431;48.520;9.046;2024-02-21T00:48:28;4.80;99.90
44705;DHT22;30431;48.520;9.046;2024-02-21T00:50:56;4.80;99.90
44705;DHT22;30431;48.520;9.046;2024-02-21T00:53:22;4.80;99.90
44705;DHT22;30431;48.520;9.046;2024-02-21T00:55:49;4.70;99.90
44705;DHT22;30431;48.520;9.046;2024-02-21T00:58:16;4.70;99.90
44705;DHT22;30431;48.520;9.046;2024-02-21T01:00:45;4.80;99.90
44705;DHT22;30431;48.520;9.046;2024-02-21T01:03:12;4.80;99.90
44705;DHT22;30431;48.520;9.046;2024-02-21T01:05:42;4.80;99.90
44705;DHT22;30431;48.520;9.046;2024-02-21T01:08:11;4.80;99.90
44705;DHT22;30431;48.520;9.046;2024-02-21T01:10:38;4.80;99.90
44705;DHT22;30431;48.520;9.046;2024-02-21T01:13:04;4.80;99.90
44705;DHT22;30431;48.520;9.046;2024-02-21T01:15:32;4.90;99.90
44705;DHT22;30431;48.520;9.046;2024-02-21T01:17:59;5.00;99.90
44705;DHT22;30431;48.520;9.046;2024-02-21T01:20:26;5.10;99.90
44705;DHT22;30431;48.520;9.046;2024-02-21T01:22:53;4.90;99.90
44705;DHT22;30431;48.520;9.046;2024-02-21T01:25:20;4.90;99.90
44705;DHT22;30431;48.520;9.046;2024-02-21T01:27:47;4.80;99.90
44705;DHT22;30431;48.520;9.046;2024-02-21T01:30:14;4.80;99.90
44705;DHT22;30431;48.520;9.046;2024-02-21T01:32:41;4.80;99.90
44705;DHT22;30431;48.520;9.046;2024-02-21T01:35:10;4.80;99.90
44705;DHT22;30431;48.520;9.046;2024-02-21T01:37:37;4.80;99.90
44705;DHT22;30431;48.520;9.046;2024-02-21T01:40:04;4.80;99.90
44705;DHT22;30431;48.520;9.046;2024-02-21T01:42:35;4.80;99.90
44705;DHT22;30431;48.520;9.046;2024-02-21T01:45:04;4.80;99.90
44705;DHT22;30431;48.520;9.046;2024-02-21T01:47:31;4.80;99.90
44705;DHT22;30431;48.520;9.046;2024-02-21T01:49:58;4.80;99.90
44705;DHT22;30431;48.520;9.046;2024-02-21T01:52:28;4.90;99.90
44705;DHT22;30431;48.520;9.046;2024-02-21T01:54:57;4.80;99.90
44705;DHT22;30431;48.520;9.046;2024-02-21T01:57:24;4.80;99.90
44705;DHT22;30431;48.520;9.046;2024-02-21T01:59:52;4.80;99.90
44705;DHT22;30431;48.520;9.046;2024-02-21T02:02:18;4.90;99.90
44705;DHT22;30431;48.520;9.046;2024-02-21T02:04:46;5.00;99.90
44705;DHT22;30431;48.520;9.046;2024-02-21T02:07:13;5.00;99.90
44705;DHT22;30431;48.520;9.046;2024-02-21T02:09:42;5.10;99.90
44705;DHT22;30431;48.520;9.046;2024-02-21T02:12:12;5.20;99.90
44705;DHT22;30431;48.520;9.046;2024-02-21T02:14:41;5.10;99.90
44705;DHT22;30431;48.520;9.046;2024-02-21T02:17:10;5.10;99.90
44705;DHT22;30431;48.520;9.046;2024-02-21T02:19:37;5.10;99.90
44705;DHT22;30431;48.520;9.046;2024-02-21T02:22:14;5.00;99.90
44705;DHT22;30431;48.520;9.046;2024-02-21T02:24:43;4.90;99.90
44705;DHT22;30431;48.520;9.046;2024-02-21T02:27:10;4.80;99.90
44705;DHT22;30431;48.520;9.046;2024-02-21T02:29:37;4.90;99.90
44705;DHT22;30431;48.520;9.046;2024-02-21T02:32:04;4.90;99.90
44705;DHT22;30431;48.520;9.046;2024-02-21T02:34:31;4.80;99.90
44705;DHT22;30431;48.520;9.046;2024-02-21T02:36:58;4.80;99.90
44705;DHT22;30431;48.520;9.046;2024-02-21T02:39:24;4.70;99.90
44705;DHT22;30431;48.520;9.046;2024-02-21T02:41:54;4.80;99.90
44705;DHT22;30431;48.520;9.046;2024-02-21T02:44:21;4.90;99.90
44705;DHT22;30431;48.520;9.046;2024-02-21T02:46:48;5.00;99.90
44705;DHT22;30431;48.520;9.046;2024-02-21T02:49:17;5.10;99.90
44705;DHT22;30431;48.520;9.046;2024-02-21T02:51:44;5.10;99.90
44705;DHT22;30431;48.520;9.046;2024-02-21T02:54:11;5.10;99.90
44705;DHT22;30431;48.520;9.046;2024-02-21T02:56:38;5.00;99.90
44705;DHT22;30431;48.520;9.046;2024-02-21T02:59:05;5.10;99.90
44705;DHT22;30431;48.520;9.046;2024-02-21T03:01:35;5.10;99.90
44705;DHT22;30431;48.520;9.046;2024-02-21T03:04:04;5.10;99.90
44705;DHT22;30431;48.520;9.046;2024-02-21T03:06:31;5.10;99.90
44705;DHT22;30431;48.520;9.046;2024-02-21T03:08:58;5.10;99.90
44705;DHT22;30431;48.520;9.046;2024-02-21T03:11:27;5.10;99.90
44705;DHT22;30431;48.520;9.046;2024-02-21T03:13:56;5.10;99.90
44705;DHT22;30431;48.520;9.046;2024-02-21T03:16:23;5.20;99.90
44705;DHT22;30431;48.520;9.046;2024-02-21T03:18:50;5.20;99.90
44705;DHT22;30431;48.520;9.046;2024-02-21T03:21:17;5.10;99.90
44705;DHT22;30431;48.520;9.046;2024-02-21T03:23:44;5.10;99.90
44705;DHT22;30431;48.520;9.046;2024-02-21T03:26:11;5.20;99.90
44705;DHT22;30431;48.520;9.046;2024-02-21T03:28:44;5.20;99.90
44705;DHT22;30431;48.520;9.046;2024-02-21T03:31:13;5.20;99.90
44705;DHT22;30431;48.520;9.046;2024-02-21T03:33:42;5.20;99.90
44705;DHT22;30431;48.520;9.046;2024-02-21T03:36:14;5.20;99.90
44705;DHT22;30431;48.520;9.046;2024-02-21T03:38:44;5.20;99.90
44705;DHT22;30431;48.520;9.046;2024-02-21T03:41:11;5.20;99.90
44705;DHT22;30431;48.520;9.046;2024-02-21T03:43:38;5.20;99.90
44705;DHT22;30431;48.520;9.046;2024-02-21T03:46:06;5.20;99.90
44705;DHT22;30431;48.520;9.046;2024-02-21T03:48:33;5.20;99.90
44705;DHT22;30431;48.520;9.046;2024-02-21T03:51:00;5.20;99.90
44705;DHT22;30431;48.520;9.046;2024-02-21T03:53:27;5.20;99.90
44705;DHT22;30431;48.520;9.046;2024-02-21T03:55:55;5.20;99.90
44705;DHT22;30431;48.520;9.046;2024-02-21T03:58:22;5.20;99.90
44705;DHT22;30431;48.520;9.046;2024-02-21T04:00:49;5.20;99.90
44705;DHT22;30431;48.520;9.046;2024-02-21T04:03:15;5.20;99.90
44705;DHT22;30431;48.520;9.046;2024-02-21T04:05:43;5.10;99.90
44705;DHT22;30431;48.520;9.046;2024-02-21T04:08:10;5.00;99.90
44705;DHT22;30431;48.520;9.046;2024-02-21T04:10:37;5.00;99.90
44705;DHT22;30431;48.520;9.046;2024-02-21T04:13:06;4.90;99.90
44705;DHT22;30431;48.520;9.046;2024-02-21T04:15:34;5.00;99.90
44705;DHT22;30431;48.520;9.046;2024-02-21T04:18:01;5.00;99.90
44705;DHT22;30431;48.520;9.046;2024-02-21T04:20:29;4.90;99.90
44705;DHT22;30431;48.520;9.046;2024-02-21T04:22:57;4.90;99.90
44705;DHT22;30431;48.520;9.046;2024-02-21T04:25:24;4.80;99.90
44705;DHT22;30431;48.520;9.046;2024-02-21T04:27:54;4.80;99.90
44705;DHT22;30431;48.520;9.046;2024-02-21T04:30:20;4.70;99.90
44705;DHT22;30431;48.520;9.046;2024-02-21T04:32:47;4.60;99.90
44705;DHT22;30431;48.520;9.046;2024-02-21T04:35:14;4.60;99.90
44705;DHT22;30431;48.520;9.046;2024-02-21T04:37:44;4.60;99.90
44705;DHT22;30431;48.520;9.046;2024-02-21T04:40:11;4.60;99.90
44705;DHT22;30431;48.520;9.046;2024-02-21T04:42:38;4.60;99.90
44705;DHT22;30431;48.520;9.046;2024-02-21T04:45:06;4.50;99.90
44705;DHT22;30431;48.520;9.046;2024-02-21T04:47:33;4.50;99.90
44705;DHT22;30431;48.520;9.046;2024-02-21T04:50:00;4.40;99.90
44705;DHT22;30431;48.520;9.046;2024-02-21T04:52:27;4.40;99.90
44705;DHT22;30431;48.520;9.046;2024-02-21T04:54:54;4.40;99.90
44705;DHT22;30431;48.520;9.046;2024-02-21T04:57:21;4.40;99.90
44705;DHT22;30431;48.520;9.046;2024-02-21T04:59:48;4.30;99.90
44705;DHT22;30431;48.520;9.046;2024-02-21T05:02:14;4.20;99.90
44705;DHT22;30431;48.520;9.046;2024-02-21T05:04:42;4.10;99.90
44705;DHT22;30431;48.520;9.046;2024-02-21T05:07:09;4.10;99.90
44705;DHT22;30431;48.520;9.046;2024-02-21T05:09:38;4.00;99.90
44705;DHT22;30431;48.520;9.046;2024-02-21T05:12:05;3.90;99.90
44705;DHT22;30431;48.520;9.046;2024-02-21T05:14:32;3.80;99.90
44705;DHT22;30431;48.520;9.046;2024-02-21T05:16:59;3.80;99.90
44705;DHT22;30431;48.520;9.046;2024-02-21T05:19:26;3.70;99.90
44705;DHT22;30431;48.520;9.046;2024-02-21T05:21:53;3.70;99.90
44705;DHT22;30431;48.520;9.046;2024-02-21T05:24:20;3.70;99.90
44705;DHT22;30431;48.520;9.046;2024-02-21T05:26:47;3.70;99.90
44705;DHT22;30431;48.520;9.046;2024-02-21T05:29:14;3.60;99.90
44705;DHT22;30431;48.520;9.046;2024-02-21T05:34:17;3.50;99.90
44705;DHT22;30431;48.520;9.046;2024-02-21T05:36:44;3.40;99.90
44705;DHT22;30431;48.520;9.046;2024-02-21T05:39:15;3.40;99.90
44705;DHT22;30431;48.520;9.046;2024-02-21T05:41:42;3.40;99.90
44705;DHT22;30431;48.520;9.046;2024-02-21T05:44:09;3.30;99.90
44705;DHT22;30431;48.520;9.046;2024-02-21T05:46:41;3.30;99.90
44705;DHT22;30431;48.520;9.046;2024-02-21T05:49:08;3.30;99.90
44705;DHT22;30431;48.520;9.046;2024-02-21T05:51:37;3.30;99.90
44705;DHT22;30431;48.520;9.046;2024-02-21T05:54:06;3.30;99.90
44705;DHT22;30431;48.520;9.046;2024-02-21T05:56:34;3.40;99.90
44705;DHT22;30431;48.520;9.046;2024-02-21T05:59:03;3.40;99.90
44705;DHT22;30431;48.520;9.046;2024-02-21T06:01:30;3.40;99.90
44705;DHT22;30431;48.520;9.046;2024-02-21T06:03:57;3.40;99.90
44705;DHT22;30431;48.520;9.046;2024-02-21T06:06:24;3.40;99.90
44705;DHT22;30431;48.520;9.046;2024-02-21T06:08:54;3.50;99.90
44705;DHT22;30431;48.520;9.046;2024-02-21T06:11:21;3.50;99.90
44705;DHT22;30431;48.520;9.046;2024-02-21T06:13:48;3.50;99.90
44705;DHT22;30431;48.520;9.046;2024-02-21T06:16:14;3.50;99.90
44705;DHT22;30431;48.520;9.046;2024-02-21T06:18:41;3.50;99.90
44705;DHT22;30431;48.520;9.046;2024-02-21T06:21:08;3.50;99.90
44705;DHT22;30431;48.520;9.046;2024-02-21T06:23:36;3.50;99.90
44705;DHT22;30431;48.520;9.046;2024-02-21T06:26:03;3.40;99.90
44705;DHT22;30431;48.520;9.046;2024-02-21T06:28:30;3.40;99.90
44705;DHT22;30431;48.520;9.046;2024-02-21T06:30:57;3.40;99.90
44705;DHT22;30431;48.520;9.046;2024-02-21T06:33:24;3.30;99.90
44705;DHT22;30431;48.520;9.046;2024-02-21T06:35:51;3.30;99.90
44705;DHT22;30431;48.520;9.046;2024-02-21T06:38:21;3.30;99.90
44705;DHT22;30431;48.520;9.046;2024-02-21T06:40:48;3.30;99.90
44705;DHT22;30431;48.520;9.046;2024-02-21T06:43:20;3.30;99.90
44705;DHT22;30431;48.520;9.046;2024-02-21T06:45:47;3.30;99.90
44705;DHT22;30431;48.520;9.046;2024-02-21T06:48:19;3.30;99.90
44705;DHT22;30431;48.520;9.046;2024-02-21T06:50:49;3.30;99.90
44705;DHT22;30431;48.520;9.046;2024-02-21T06:53:16;3.40;99.90
44705;DHT22;30431;48.520;9.046;2024-02-21T06:55:42;3.40;99.90
44705;DHT22;30431;48.520;9.046;2024-02-21T06:58:09;3.50;99.90
44705;DHT22;30431;48.520;9.046;2024-02-21T07:00:39;3.50;99.90
44705;DHT22;30431;48.520;9.046;2024-02-21T07:03:08;3.60;99.90
44705;DHT22;30431;48.520;9.046;2024-02-21T07:05:37;3.60;99.90
44705;DHT22;30431;48.520;9.046;2024-02-21T07:08:07;3.70;99.90
44705;DHT22;30431;48.520;9.046;2024-02-21T07:10:34;3.70;99.90
44705;DHT22;30431;48.520;9.046;2024-02-21T07:13:00;3.80;99.90
44705;DHT22;30431;48.520;9.046;2024-02-21T07:15:27;3.80;99.90
44705;DHT22;30431;48.520;9.046;2024-02-21T07:17:58;3.90;99.90
44705;DHT22;30431;48.520;9.046;2024-02-21T07:20:26;3.90;99.90
44705;DHT22;30431;48.520;9.046;2024-02-21T07:22:58;4.00;99.90
44705;DHT22;30431;48.520;9.046;2024-02-21T07:25:30;4.20;99.90
44705;DHT22;30431;48.520;9.046;2024-02-21T07:27:57;4.30;99.90
44705;DHT22;30431;48.520;9.046;2024-02-21T07:30:24;4.40;99.90
44705;DHT22;30431;48.520;9.046;2024-02-21T07:32:51;4.50;99.90
44705;DHT22;30431;48.520;9.046;2024-02-21T07:35:18;4.80;99.90
44705;DHT22;30431;48.520;9.046;2024-02-21T07:37:45;4.80;99.90
44705;DHT22;30431;48.520;9.046;2024-02-21T07:40:12;4.80;99.90
44705;DHT22;30431;48.520;9.046;2024-02-21T07:42:57;4.90;99.90
44705;DHT22;30431;48.520;9.046;2024-02-21T07:45:24;5.10;99.90
44705;DHT22;30431;48.520;9.046;2024-02-21T07:47:51;5.30;99.90
44705;DHT22;30431;48.520;9.046;2024-02-21T07:50:21;5.50;99.90
44705;DHT22;30431;48.520;9.046;2024-02-21T07:52:48;5.60;99.90
44705;DHT22;30431;48.520;9.046;2024-02-21T07:55:18;5.80;99.90
44705;DHT22;30431;48.520;9.046;2024-02-21T07:57:45;5.90;99.90
44705;DHT22;30431;48.520;9.046;2024-02-21T08:00:19;5.90;99.90
44705;DHT22;30431;48.520;9.046;2024-02-21T08:02:50;5.90;99.90
44705;DHT22;30431;48.520;9.046;2024-02-21T08:05:20;6.00;99.90
44705;DHT22;30431;48.520;9.046;2024-02-21T08:07:48;6.20;99.90
44705;DHT22;30431;48.520;9.046;2024-02-21T08:10:15;6.30;99.90
44705;DHT22;30431;48.520;9.046;2024-02-21T08:12:42;6.50;99.90
44705;DHT22;30431;48.520;9.046;2024-02-21T08:15:09;6.60;99.90
44705;DHT22;30431;48.520;9.046;2024-02-21T08:17:38;6.60;99.90
44705;DHT22;30431;48.520;9.046;2024-02-21T08:20:08;6.70;99.90
44705;DHT22;30431;48.520;9.046;2024-02-21T08:22:37;6.80;99.90
44705;DHT22;30431;48.520;9.046;2024-02-21T08:25:07;7.00;99.90
44705;DHT22;30431;48.520;9.046;2024-02-21T08:27:34;7.00;99.90
44705;DHT22;30431;48.520;9.046;2024-02-21T08:30:01;6.90;99.90
44705;DHT22;30431;48.520;9.046;2024-02-21T08:32:29;7.10;99.90
44705;DHT22;30431;48.520;9.046;2024-02-21T08:34:58;7.40;99.90
44705;DHT22;30431;48.520;9.046;2024-02-21T08:37:27;7.60;99.90
44705;DHT22;30431;48.520;9.046;2024-02-21T08:39:54;7.70;99.90
44705;DHT22;30431;48.520;9.046;2024-02-21T08:42:23;7.90;99.90
44705;DHT22;30431;48.520;9.046;2024-02-21T08:44:50;8.10;99.90
44705;DHT22;30431;48.520;9.046;2024-02-21T08:47:17;8.30;99.90
44705;DHT22;30431;48.520;9.046;2024-02-21T08:49:45;8.30;99.90
44705;DHT22;30431;48.520;9.046;2024-02-21T08:52:12;8.40;99.90
44705;DHT22;30431;48.520;9.046;2024-02-21T08:54:39;8.50;99.90
44705;DHT22;30431;48.520;9.046;2024-02-21T08:57:07;8.60;99.90
44705;DHT22;30431;48.520;9.046;2024-02-21T08:59:36;8.70;99.90
44705;DHT22;30431;48.520;9.046;2024-02-21T09:02:04;8.70;99.90
44705;DHT22;30431;48.520;9.046;2024-02-21T09:04:31;8.80;99.90
44705;DHT22;30431;48.520;9.046;2024-02-21T09:06:58;8.90;99.90
44705;DHT22;30431;48.520;9.046;2024-02-21T09:09:26;8.80;99.90
44705;DHT22;30431;48.520;9.046;2024-02-21T09:11:55;9.00;99.90
44705;DHT22;30431;48.520;9.046;2024-02-21T09:14:25;9.30;99.90
44705;DHT22;30431;48.520;9.046;2024-02-21T09:16:54;9.40;99.90
44705;DHT22;30431;48.520;9.046;2024-02-21T09:19:23;9.50;99.90
44705;DHT22;30431;48.520;9.046;2024-02-21T09:21:55;9.40;99.90
44705;DHT22;30431;48.520;9.046;2024-02-21T09:24:22;9.50;99.90
44705;DHT22;30431;48.520;9.046;2024-02-21T09:26:49;9.30;99.90
44705;DHT22;30431;48.520;9.046;2024-02-21T09:29:16;9.20;99.90
44705;DHT22;30431;48.520;9.046;2024-02-21T09:31:43;9.40;99.90
44705;DHT22;30431;48.520;9.046;2024-02-21T09:34:10;9.40;99.90
44705;DHT22;30431;48.520;9.046;2024-02-21T09:36:40;9.30;99.90
44705;DHT22;30431;48.520;9.046;2024-02-21T09:39:07;9.40;99.90
44705;DHT22;30431;48.520;9.046;2024-02-21T09:41:36;9.60;99.90
44705;DHT22;30431;48.520;9.046;2024-02-21T09:44:08;9.70;99.90
44705;DHT22;30431;48.520;9.046;2024-02-21T09:46:48;9.70;99.90
44705;DHT22;30431;48.520;9.046;2024-02-21T09:49:31;9.70;99.90
44705;DHT22;30431;48.520;9.046;2024-02-21T09:52:06;10.00;99.80
44705;DHT22;30431;48.520;9.046;2024-02-21T09:54:36;10.10;99.70
44705;DHT22;30431;48.520;9.046;2024-02-21T09:57:03;10.10;99.00
44705;DHT22;30431;48.520;9.046;2024-02-21T09:59:33;10.20;99.00
44705;DHT22;30431;48.520;9.046;2024-02-21T10:02:00;10.30;98.90
44705;DHT22;30431;48.520;9.046;2024-02-21T10:04:29;10.40;98.40
44705;DHT22;30431;48.520;9.046;2024-02-21T10:06:57;10.40;98.20
44705;DHT22;30431;48.520;9.046;2024-02-21T10:09:25;10.40;97.70
44705;DHT22;30431;48.520;9.046;2024-02-21T10:11:56;10.60;97.40
44705;DHT22;30431;48.520;9.046;2024-02-21T10:14:33;10.60;97.80
44705;DHT22;30431;48.520;9.046;2024-02-21T10:17:00;10.80;97.30
44705;DHT22;30431;48.520;9.046;2024-02-21T10:19:31;10.90;97.10
44705;DHT22;30431;48.520;9.046;2024-02-21T10:22:07;11.10;96.10
44705;DHT22;30431;48.520;9.046;2024-02-21T10:24:37;11.30;96.00
44705;DHT22;30431;48.520;9.046;2024-02-21T10:27:10;11.50;94.70
44705;DHT22;30431;48.520;9.046;2024-02-21T10:29:41;11.70;94.70
44705;DHT22;30431;48.520;9.046;2024-02-21T10:32:13;11.60;94.10
44705;DHT22;30431;48.520;9.046;2024-02-21T10:34:42;11.70;94.10
44705;DHT22;30431;48.520;9.046;2024-02-21T10:37:11;11.80;94.10
44705;DHT22;30431;48.520;9.046;2024-02-21T10:39:42;12.00;93.80
44705;DHT22;30431;48.520;9.046;2024-02-21T10:42:12;12.30;93.50
44705;DHT22;30431;48.520;9.046;2024-02-21T10:44:41;12.60;92.30
44705;DHT22;30431;48.520;9.046;2024-02-21T10:47:11;12.40;91.70
44705;DHT22;30431;48.520;9.046;2024-02-21T10:49:44;12.60;91.50
44705;DHT22;30431;48.520;9.046;2024-02-21T10:52:24;12.70;91.40
44705;DHT22;30431;48.520;9.046;2024-02-21T10:55:04;12.80;91.90
44705;DHT22;30431;48.520;9.046;2024-02-21T10:57:34;12.80;90.90
44705;DHT22;30431;48.520;9.046;2024-02-21T11:00:03;12.90;90.80
44705;DHT22;30431;48.520;9.046;2024-02-21T11:02:34;12.80;89.50
44705;DHT22;30431;48.520;9.046;2024-02-21T11:05:02;12.80;90.00
44705;DHT22;30431;48.520;9.046;2024-02-21T11:07:32;12.90;90.00
44705;DHT22;30431;48.520;9.046;2024-02-21T11:10:02;13.00;89.00
44705;DHT22;30431;48.520;9.046;2024-02-21T11:12:33;13.00;89.10
44705;DHT22;30431;48.520;9.046;2024-02-21T11:15:04;12.90;87.80
44705;DHT22;30431;48.520;9.046;2024-02-21T11:17:32;13.00;87.70
44705;DHT22;30431;48.520;9.046;2024-02-21T11:20:14;13.00;87.40
44705;DHT22;30431;48.520;9.046;2024-02-21T11:22:42;13.10;86.30
44705;DHT22;30431;48.520;9.046;2024-02-21T11:25:10;13.00;86.90
44705;DHT22;30431;48.520;9.046;2024-02-21T11:27:38;13.10;85.60
44705;DHT22;30431;48.520;9.046;2024-02-21T11:30:05;13.10;86.20
44705;DHT22;30431;48.520;9.046;2024-02-21T11:32:32;13.10;86.70
44705;DHT22;30431;48.520;9.046;2024-02-21T11:35:00;13.10;86.30
44705;DHT22;30431;48.520;9.046;2024-02-21T11:37:35;13.30;85.40
44705;DHT22;30431;48.520;9.046;2024-02-21T11:40:05;13.30;84.30
44705;DHT22;30431;48.520;9.046;2024-02-21T11:42:39;13.20;84.30
44705;DHT22;30431;48.520;9.046;2024-02-21T11:45:09;13.10;84.90
44705;DHT22;30431;48.520;9.046;2024-02-21T11:47:36;13.30;85.50
44705;DHT22;30431;48.520;9.046;2024-02-21T11:50:11;13.40;84.30
44705;DHT22;30431;48.520;9.046;2024-02-21T11:52:41;13.50;84.30
44705;DHT22;30431;48.520;9.046;2024-02-21T11:55:08;13.40;83.20
44705;DHT22;30431;48.520;9.046;2024-02-21T11:57:39;13.40;83.70
44705;DHT22;30431;48.520;9.046;2024-02-21T12:00:18;13.50;83.60
44705;DHT22;30431;48.520;9.046;2024-02-21T12:02:52;13.40;82.10
44705;DHT22;30431;48.520;9.046;2024-02-21T12:05:21;13.60;83.50
44705;DHT22;30431;48.520;9.046;2024-02-21T12:07:48;13.70;82.60
44705;DHT22;30431;48.520;9.046;2024-02-21T12:10:17;13.70;81.40
44705;DHT22;30431;48.520;9.046;2024-02-21T12:12:44;13.90;80.90
44705;DHT22;30431;48.520;9.046;2024-02-21T12:15:11;13.80;80.90
44705;DHT22;30431;48.520;9.046;2024-02-21T12:17:39;13.70;82.30
44705;DHT22;30431;48.520;9.046;2024-02-21T12:20:07;13.60;81.00
44705;DHT22;30431;48.520;9.046;2024-02-21T12:22:43;13.50;81.10
44705;DHT22;30431;48.520;9.046;2024-02-21T12:25:16;13.70;81.50
44705;DHT22;30431;48.520;9.046;2024-02-21T12:27:47;13.70;80.90
44705;DHT22;30431;48.520;9.046;2024-02-21T12:30:16;13.70;81.10
44705;DHT22;30431;48.520;9.046;2024-02-21T12:32:44;13.90;81.20
44705;DHT22;30431;48.520;9.046;2024-02-21T12:35:11;13.90;81.40
44705;DHT22;30431;48.520;9.046;2024-02-21T12:37:38;13.80;80.70
44705;DHT22;30431;48.520;9.046;2024-02-21T12:40:09;13.70;81.70
44705;DHT22;30431;48.520;9.046;2024-02-21T12:42:40;13.70;81.40
44705;DHT22;30431;48.520;9.046;2024-02-21T12:45:09;13.80;81.50
44705;DHT22;30431;48.520;9.046;2024-02-21T12:47:39;14.10;81.60
44705;DHT22;30431;48.520;9.046;2024-02-21T12:50:07;13.90;81.50
44705;DHT22;30431;48.520;9.046;2024-02-21T12:52:35;13.80;80.90
44705;DHT22;30431;48.520;9.046;2024-02-21T12:55:02;13.90;81.40
44705;DHT22;30431;48.520;9.046;2024-02-21T12:57:29;14.00;81.60
44705;DHT22;30431;48.520;9.046;2024-02-21T12:59:57;14.10;82.50
44705;DHT22;30431;48.520;9.046;2024-02-21T13:02:24;14.20;81.90
44705;DHT22;30431;48.520;9.046;2024-02-21T13:04:53;14.30;81.00
44705;DHT22;30431;48.520;9.046;2024-02-21T13:07:21;14.40;80.90
44705;DHT22;30431;48.520;9.046;2024-02-21T13:09:50;14.50;81.50
44705;DHT22;30431;48.520;9.046;2024-02-21T13:12:19;14.60;79.80
44705;DHT22;30431;48.520;9.046;2024-02-21T13:14:49;14.70;79.20
44705;DHT22;30431;48.520;9.046;2024-02-21T13:17:16;14.60;79.30
44705;DHT22;30431;48.520;9.046;2024-02-21T13:19:46;14.60;80.80
44705;DHT22;30431;48.520;9.046;2024-02-21T13:22:14;14.60;79.50
44705;DHT22;30431;48.520;9.046;2024-02-21T13:24:41;14.70;79.50
44705;DHT22;30431;48.520;9.046;2024-02-21T13:27:08;14.50;79.30
44705;DHT22;30431;48.520;9.046;2024-02-21T13:29:35;14.50;79.90
44705;DHT22;30431;48.520;9.046;2024-02-21T13:32:02;14.40;79.80
44705;DHT22;30431;48.520;9.046;2024-02-21T13:34:29;14.00;79.60
44705;DHT22;30431;48.520;9.046;2024-02-21T13:36:56;14.00;81.00
44705;DHT22;30431;48.520;9.046;2024-02-21T13:39:25;14.30;80.70
44705;DHT22;30431;48.520;9.046;2024-02-21T13:41:52;14.30;80.20
44705;DHT22;30431;48.520;9.046;2024-02-21T13:44:20;14.20;80.90
44705;DHT22;30431;48.520;9.046;2024-02-21T13:46:49;14.30;80.00
44705;DHT22;30431;48.520;9.046;2024-02-21T13:49:17;14.20;80.50
44705;DHT22;30431;48.520;9.046;2024-02-21T13:51:49;14.10;80.60
44705;DHT22;30431;48.520;9.046;2024-02-21T13:54:19;14.10;81.30
44705;DHT22;30431;48.520;9.046;2024-02-21T13:56:46;14.20;80.70
44705;DHT22;30431;48.520;9.046;2024-02-21T13:59:16;14.20;81.20
44705;DHT22;30431;48.520;9.046;2024-02-21T14:01:43;14.10;80.80
44705;DHT22;30431;48.520;9.046;2024-02-21T14:04:10;14.00;82.00
44705;DHT22;30431;48.520;9.046;2024-02-21T14:06:37;14.00;81.80
44705;DHT22;30431;48.520;9.046;2024-02-21T14:09:10;14.10;81.80
44705;DHT22;30431;48.520;9.046;2024-02-21T14:11:37;14.10;80.30
44705;DHT22;30431;48.520;9.046;2024-02-21T14:14:05;14.00;79.40
44705;DHT22;30431;48.520;9.046;2024-02-21T14:16:35;14.10;80.10
44705;DHT22;30431;48.520;9.046;2024-02-21T14:19:07;14.00;79.50
44705;DHT22;30431;48.520;9.046;2024-02-21T14:21:37;14.10;81.30
44705;DHT22;30431;48.520;9.046;2024-02-21T14:24:05;14.10;81.30
44705;DHT22;30431;48.520;9.046;2024-02-21T14:26:35;14.10;79.80
44705;DHT22;30431;48.520;9.046;2024-02-21T14:29:03;14.10;80.00
44705;DHT22;30431;48.520;9.046;2024-02-21T14:31:33;14.10;80.00
44705;DHT22;30431;48.520;9.046;2024-02-21T14:34:00;14.20;79.90
44705;DHT22;30431;48.520;9.046;2024-02-21T14:36:31;14.20;80.00
44705;DHT22;30431;48.520;9.046;2024-02-21T14:39:00;14.20;80.60
44705;DHT22;30431;48.520;9.046;2024-02-21T14:41:26;14.20;80.80
44705;DHT22;30431;48.520;9.046;2024-02-21T14:43:55;14.00;79.50
44705;DHT22;30431;48.520;9.046;2024-02-21T14:46:32;14.00;80.60
44705;DHT22;30431;48.520;9.046;2024-02-21T14:49:00;14.10;80.80
44705;DHT22;30431;48.520;9.046;2024-02-21T14:51:27;14.10;79.90
44705;DHT22;30431;48.520;9.046;2024-02-21T14:53:56;13.80;78.50
44705;DHT22;30431;48.520;9.046;2024-02-21T14:56:28;13.70;78.00
44705;DHT22;30431;48.520;9.046;2024-02-21T14:58:55;13.70;79.40
44705;DHT22;30431;48.520;9.046;2024-02-21T15:01:37;13.60;79.30
44705;DHT22;30431;48.520;9.046;2024-02-21T15:04:07;13.50;79.20
44705;DHT22;30431;48.520;9.046;2024-02-21T15:06:35;13.50;79.70
44705;DHT22;30431;48.520;9.046;2024-02-21T15:09:04;13.40;79.90
44705;DHT22;30431;48.520;9.046;2024-02-21T15:11:33;13.30;80.40
44705;DHT22;30431;48.520;9.046;2024-02-21T15:14:00;13.20;80.60
44705;DHT22;30431;48.520;9.046;2024-02-21T15:16:29;13.20;81.40
44705;DHT22;30431;48.520;9.046;2024-02-21T15:18:56;13.10;81.90
44705;DHT22;30431;48.520;9.046;2024-02-21T15:21:23;13.10;82.60
44705;DHT22;30431;48.520;9.046;2024-02-21T15:23:50;13.20;83.00
44705;DHT22;30431;48.520;9.046;2024-02-21T15:26:17;13.20;83.50
44705;DHT22;30431;48.520;9.046;2024-02-21T15:28:47;13.20;84.10
44705;DHT22;30431;48.520;9.046;2024-02-21T15:31:24;13.10;83.90
44705;DHT22;30431;48.520;9.046;2024-02-21T15:33:52;13.00;85.20
44705;DHT22;30431;48.520;9.046;2024-02-21T15:36:25;13.10;85.20
44705;DHT22;30431;48.520;9.046;2024-02-21T15:38:52;13.00;86.10
44705;DHT22;30431;48.520;9.046;2024-02-21T15:41:19;12.90;86.40
44705;DHT22;30431;48.520;9.046;2024-02-21T15:43:51;12.90;86.80
44705;DHT22;30431;48.520;9.046;2024-02-21T15:46:45;12.80;87.50
44705;DHT22;30431;48.520;9.046;2024-02-21T15:49:21;12.70;87.40
44705;DHT22;30431;48.520;9.046;2024-02-21T15:51:48;12.70;87.70